MMUN/CUN METAR and TAF weather

Enter ICAO airport designator
Station Type Date Time Source
MMUN METAR 2020/09/27 02:43 UTC NOAA

MMUN 270243Z 15004KT 7SM FEW015 SCT250 28/25 A2998 RMK SLP151 52019 956 8/508


Station Type Date Time Source
MMUN Decoded METAR 2020/09/27 02:43 UTC NOAA

Cancun International Airport, Mexico (MMUN) 21-02N 086-52W
Sep 26, 2020 - 10:43 PM EDT / 2020.09.27 0243 UTC
Wind: from the SSE (150 degrees) at 5 MPH (4 KT):0
Visibility: 7 mile(s):0
Sky conditions: partly cloudy
Temperature: 82 F (28 C)
Dew Point: 77 F (25 C)
Relative Humidity: 83%
Pressure (altimeter): 29.98 in. Hg (1015 hPa)
Pressure tendency: 0.06 inches (1.9 hPa) higher than three hours ago
ob: MMUN 270243Z 15004KT 7SM FEW015 SCT250 28/25 A2998 RMK SLP151 52019 956 8/508
cycle: 2

Station Type Date Time Source
MMUN TAF 2020/09/27 00:19 UTC NOAA

TAF MMUN 262316Z 2700/2806 13008KT P6SM SCT015 BKN280 TN26/2709Z TX32/2719Z
FM270300 13008KT P6SM BKN015 BKN280
FM271600 13010KT P6SM SCT015
BECMG 2719/2720 BKN015
FM280300 10008KT P6SM SCT015

Example: see airport list